1884 NOT_NAMED (1884177N17124)


IBTrACS version v04r00. Visit IBTrACS website for data access.
Please direct all questions to the IBTrACS Q and A forum

Storm track - Intensity - Wind Radii - Intensity Data - Source Data - All data

Summary Information

Storm ID 1884177N17124
Start Jun 24 16Z
Landfall Jun 25 09Z
End Jun 30 04Z
ATCF IDs
Track status Best track data.

Storm track plot

Map of storm track

Intensity plots

No Intensity information for this storm


Radial wind information

No radial wind information for this storm


Position and Intensity Table

BASIN ISO_TIME_________ NATURE LAT LON
degrees north degrees east
WP 1884-06-24 16:00:00 NR 16.50 124.00
WP 18:00:00 NR 16.54 123.80
WP 21:00:00 NR 16.60 123.50
WP 1884-06-25 00:00:00 NR 16.67 123.20
WP 03:00:00 NR 16.76 122.90
WP 04:00:00 NR 16.80 122.80
WP 06:00:00 NR 16.88 122.60
WP 09:00:00 NR 17.03 122.30
WP 12:00:00 NR 17.18 122.00
WP 15:00:00 NR 17.35 121.70
WP 16:00:00 NR 17.40 121.60
WP 18:00:00 NR 17.50 121.39
WP 21:00:00 NR 17.65 121.09
WP 1884-06-26 00:00:00 NR 17.80 120.78
WP 03:00:00 NR 17.95 120.49
WP 04:00:00 NR 18.00 120.40
WP 06:00:00 NR 18.09 120.22
WP 09:00:00 NR 18.23 119.97
WP 12:00:00 NR 18.38 119.72
WP 15:00:00 NR 18.54 119.48
WP 16:00:00 NR 18.60 119.40
WP 18:00:00 NR 18.73 119.22
WP 21:00:00 NR 18.95 118.94
WP 1884-06-27 00:00:00 NR 19.18 118.69
WP 03:00:00 NR 19.42 118.46
WP 04:00:00 NR 19.50 118.40
WP 06:00:00 NR 19.64 118.28
WP 09:00:00 NR 19.86 118.14
WP 12:00:00 NR 20.08 118.05
WP 15:00:00 NR 20.32 118.00
WP 16:00:00 NR 20.40 118.00
WP 18:00:00 NR 20.58 118.00
WP 21:00:00 NR 20.86 118.06
WP 1884-06-28 00:00:00 NR 21.15 118.15
WP 03:00:00 NR 21.42 118.26
WP 04:00:00 NR 21.50 118.30
WP 06:00:00 NR 21.65 118.37
WP 09:00:00 NR 21.86 118.48
WP 12:00:00 NR 22.06 118.61
WP 15:00:00 NR 22.24 118.75
WP 16:00:00 NR 22.30 118.80
WP 18:00:00 NR 22.38 118.89
WP 21:00:00 NR 22.49 119.03
WP 1884-06-29 00:00:00 NR 22.64 119.20
WP 03:00:00 NR 22.89 119.41
WP 04:00:00 NR 23.00 119.50
WP 06:00:00 NR 23.33 119.68
WP 09:00:00 NR 23.94 119.99
WP 12:00:00 NR 24.59 120.38
WP 15:00:00 NR 25.22 120.83
WP 16:00:00 NR 25.40 121.00
WP 18:00:00 NR 25.72 121.36
WP 21:00:00 NR 26.10 121.96
WP 1884-06-30 00:00:00 NR 26.39 122.60
WP 03:00:00 NR 26.63 123.27
WP 04:00:00 NR 26.70 123.50

Source Information

Agency Information
USA
TOKYO
CMA
HKO
NEWDELHI
REUNION
BOM
NADI
WELLINGTON
DS824
TD9636 cons_worldwide_trop_cyclone_18710101-19891231-003:Line=1
TD9635
NEUMANN
MLC

All available IBTrACS Data

SEASON BASIN SUBBASIN ISO_TIME_________ NATURE LAT LON DIST2LAND LANDFALL IFLAG USA SSHS TD9636 LAT TD9636 LON TD9636 STAGE STORM SPEED STORM DIR
Year degrees north degrees east km km 1 degrees north degrees east kts degrees
1884 WP MM 1884-06-24 16:00:00 NR 16.50 124.00 165 145 __________O___ -1 16.50 124.00 7 6 281
1884 WP MM 18:00:00 NR 16.54 123.80 145 111 __________P___ -1 16.54 123.80 7 6 282
1884 WP MM 21:00:00 NR 16.60 123.50 111 77 __________P___ -1 16.60 123.50 7 6 283
1884 WP MM 1884-06-25 00:00:00 NR 16.67 123.20 77 44 __________P___ -1 16.67 123.20 7 6 286
1884 WP MM 03:00:00 NR 16.76 122.90 44 33 __________P___ -1 16.76 122.90 7 6 289
1884 WP MM 04:00:00 NR 16.80 122.80 33 10 __________O___ -1 16.80 122.80 7 6 293
1884 WP MM 06:00:00 NR 16.88 122.60 10 0 __________P___ -1 16.88 122.60 7 6 295
1884 WP MM 09:00:00 NR 17.03 122.30 0 0 __________P___ -1 17.03 122.30 7 6 298
1884 WP MM 12:00:00 NR 17.18 122.00 0 0 __________P___ -1 17.18 122.00 7 7 299
1884 WP MM 15:00:00 NR 17.35 121.70 0 0 __________P___ -1 17.35 121.70 7 7 300
1884 WP MM 16:00:00 NR 17.40 121.60 0 0 __________O___ -1 17.40 121.60 7 7 298
1884 WP MM 18:00:00 NR 17.50 121.39 0 0 __________P___ -1 17.50 121.39 7 7 297
1884 WP MM 21:00:00 NR 17.65 121.09 0 0 __________P___ -1 17.65 121.09 7 7 297
1884 WP MM 1884-06-26 00:00:00 NR 17.80 120.78 0 0 __________P___ -1 17.80 120.78 7 6 298
1884 WP MM 03:00:00 NR 17.95 120.49 0 0 __________P___ -1 17.95 120.49 7 6 299
1884 WP MM 04:00:00 NR 18.00 120.40 10 10 __________O___ -1 18.00 120.40 7 6 299
1884 WP MM 06:00:00 NR 18.09 120.22 31 31 __________P___ -1 18.09 120.22 7 6 299
1884 WP MM 09:00:00 NR 18.23 119.97 54 54 __________P___ -1 18.23 119.97 7 6 301
1884 WP MM 12:00:00 NR 18.38 119.72 90 90 __________P___ -1 18.38 119.72 7 6 304
1884 WP MM 15:00:00 NR 18.54 119.48 114 114 __________P___ -1 18.54 119.48 7 6 306
1884 WP MM 16:00:00 NR 18.60 119.40 128 128 __________O___ -1 18.60 119.40 7 6 308
1884 WP MM 18:00:00 NR 18.73 119.22 151 151 __________P___ -1 18.73 119.22 7 7 309
1884 WP MM 21:00:00 NR 18.95 118.94 191 191 __________P___ -1 18.95 118.94 7 7 312
1884 WP MM 1884-06-27 00:00:00 NR 19.18 118.69 219 219 __________P___ -1 19.18 118.69 7 7 316
1884 WP MM 03:00:00 NR 19.42 118.46 247 247 __________P___ -1 19.42 118.46 7 6 319
1884 WP MM 04:00:00 NR 19.50 118.40 262 262 __________O___ -1 19.50 118.40 4 6 322
1884 WP MM 06:00:00 NR 19.64 118.28 276 282 __________P___ -1 19.64 118.28 4 5 325
1884 WP MM 09:00:00 NR 19.86 118.14 311 311 __________P___ -1 19.86 118.14 4 5 334
1884 WP MM 12:00:00 NR 20.08 118.05 332 329 __________P___ -1 20.08 118.05 4 5 344
1884 WP MM 15:00:00 NR 20.32 118.00 329 319 __________P___ -1 20.32 118.00 4 5 352
1884 WP MM 16:00:00 NR 20.40 118.00 319 300 __________O___ -1 20.40 118.00 4 5 5
1884 WP MM 18:00:00 NR 20.58 118.00 300 277 __________P___ -1 20.58 118.00 4 6 6
1884 WP MM 21:00:00 NR 20.86 118.06 277 260 __________P___ -1 20.86 118.06 4 6 13
1884 WP MM 1884-06-28 00:00:00 NR 21.15 118.15 260 240 __________P___ -1 21.15 118.15 4 6 19
1884 WP MM 03:00:00 NR 21.42 118.26 240 234 __________P___ -1 21.42 118.26 4 6 22
1884 WP MM 04:00:00 NR 21.50 118.30 234 215 __________O___ -1 21.50 118.30 4 5 22
1884 WP MM 06:00:00 NR 21.65 118.37 215 197 __________P___ -1 21.65 118.37 4 5 25
1884 WP MM 09:00:00 NR 21.86 118.48 197 180 __________P___ -1 21.86 118.48 4 5 29
1884 WP MM 12:00:00 NR 22.06 118.61 180 167 __________P___ -1 22.06 118.61 4 5 34
1884 WP MM 15:00:00 NR 22.24 118.75 167 154 __________P___ -1 22.24 118.75 4 5 36
1884 WP MM 16:00:00 NR 22.30 118.80 154 140 __________O___ -1 22.30 118.80 4 4 42
1884 WP MM 18:00:00 NR 22.38 118.89 140 127 __________P___ -1 22.38 118.89 4 3 48
1884 WP MM 21:00:00 NR 22.49 119.03 127 104 __________P___ -1 22.49 119.03 4 4 48
1884 WP MM 1884-06-29 00:00:00 NR 22.64 119.20 104 75 __________P___ -1 22.64 119.20 4 5 42
1884 WP MM 03:00:00 NR 22.89 119.41 75 62 __________P___ -1 22.89 119.41 4 7 38
1884 WP MM 04:00:00 NR 23.00 119.50 62 42 __________O___ -1 23.00 119.50 4 10 29
1884 WP MM 06:00:00 NR 23.33 119.68 42 23 __________P___ -1 23.33 119.68 4 13 26
1884 WP MM 09:00:00 NR 23.94 119.99 30 20 __________P___ -1 23.94 119.99 4 14 27
1884 WP MM 12:00:00 NR 24.59 120.38 30 23 __________P___ -1 24.59 120.38 4 15 31
1884 WP MM 15:00:00 NR 25.22 120.83 30 24 __________P___ -1 25.22 120.83 4 15 35
1884 WP MM 16:00:00 NR 25.40 121.00 39 39 __________O___ -1 25.40 121.00 7 14 43
1884 WP MM 18:00:00 NR 25.72 121.36 55 55 __________P___ -1 25.72 121.36 7 13 51
1884 WP MM 21:00:00 NR 26.10 121.96 108 108 __________P___ -1 26.10 121.96 7 13 59
1884 WP MM 1884-06-30 00:00:00 NR 26.39 122.60 167 167 __________P___ -1 26.39 122.60 7 13 66
1884 WP MM 03:00:00 NR 26.63 123.27 221 221 __________P___ -1 26.63 123.27 7 13 69
1884 WP MM 04:00:00 NR 26.70 123.50 241 __________O___ -1 26.70 123.50 7 13 70